createdAt,value
2022-10-31T00:01:11.836Z,12.87
2022-10-31T00:04:36.749Z,12.93
2022-10-31T00:08:01.601Z,12.98
2022-10-31T00:11:27.855Z,13.02
2022-10-31T00:14:53.744Z,13.05
2022-10-31T00:18:19.177Z,13.08
2022-10-31T00:21:44.434Z,13.11
2022-10-31T00:25:10.012Z,13.10
2022-10-31T00:28:35.242Z,13.06
2022-10-31T00:32:00.735Z,13.03
2022-10-31T00:35:27.560Z,13.01
2022-10-31T00:38:52.562Z,12.99
2022-10-31T00:42:20.263Z,12.94
2022-10-31T00:45:49.356Z,12.91
2022-10-31T00:49:16.677Z,12.88
2022-10-31T00:52:41.792Z,12.84
2022-10-31T00:56:08.211Z,12.79
2022-10-31T00:59:33.740Z,12.75
2022-10-31T01:02:59.284Z,12.72
2022-10-31T01:06:25.241Z,12.66
2022-10-31T01:09:50.385Z,12.60
2022-10-31T01:13:15.684Z,12.58
2022-10-31T01:16:43.079Z,12.60
2022-10-31T01:20:10.193Z,12.60
2022-10-31T01:23:36.057Z,12.61
2022-10-31T01:27:01.539Z,12.63
2022-10-31T01:30:26.888Z,12.66
2022-10-31T01:33:53.109Z,12.68
2022-10-31T01:37:18.832Z,12.73
2022-10-31T01:40:43.994Z,12.76
2022-10-31T01:44:22.499Z,12.77
2022-10-31T01:47:49.183Z,12.79
2022-10-31T01:51:16.184Z,12.82
2022-10-31T01:54:43.891Z,12.83
2022-10-31T01:58:10.919Z,12.86
2022-10-31T02:01:36.658Z,12.86
2022-10-31T02:05:03.687Z,12.85
2022-10-31T02:08:30.946Z,12.78
2022-10-31T02:11:57.915Z,12.75
2022-10-31T02:15:24.329Z,12.73
2022-10-31T02:18:49.293Z,12.66
2022-10-31T02:22:18.980Z,12.62
2022-10-31T02:25:57.957Z,12.57
2022-10-31T02:29:35.709Z,12.51
2022-10-31T02:33:09.474Z,12.40
2022-10-31T02:36:41.447Z,12.31
2022-10-31T02:40:11.928Z,12.23
2022-10-31T02:44:03.519Z,12.19
2022-10-31T02:47:32.646Z,12.19
2022-10-31T02:51:01.010Z,12.19
2022-10-31T02:54:28.591Z,12.19
2022-10-31T02:57:56.043Z,12.19
2022-10-31T03:01:33.060Z,12.23
2022-10-31T03:05:07.542Z,12.27
2022-10-31T03:08:37.875Z,12.31
2022-10-31T03:12:07.131Z,12.36
2022-10-31T03:15:33.871Z,12.43
2022-10-31T03:19:00.546Z,12.46
2022-10-31T03:22:27.117Z,12.46
2022-10-31T03:25:57.246Z,12.52
2022-10-31T03:29:29.516Z,12.56
2022-10-31T03:32:57.308Z,12.60
2022-10-31T03:36:23.433Z,12.64
2022-10-31T03:39:52.111Z,12.64
2022-10-31T03:46:52.917Z,12.63
2022-10-31T03:50:21.610Z,12.65
2022-10-31T03:53:50.373Z,12.65
2022-10-31T03:57:23.236Z,12.64
2022-10-31T04:00:48.486Z,12.59
2022-10-31T04:04:16.220Z,12.53
2022-10-31T04:07:43.607Z,12.47
2022-10-31T04:11:10.638Z,12.38
2022-10-31T04:14:40.073Z,12.32
2022-10-31T04:18:07.107Z,12.30
2022-10-31T04:21:32.819Z,12.28
2022-10-31T04:24:58.458Z,12.26
2022-10-31T04:28:25.531Z,12.27
2022-10-31T04:31:50.607Z,12.27
2022-10-31T04:35:17.352Z,12.26
2022-10-31T04:38:45.432Z,12.25
2022-10-31T04:42:22.932Z,12.30
2022-10-31T04:45:47.673Z,12.35
2022-10-31T04:49:14.227Z,12.40
2022-10-31T04:52:42.562Z,12.43
2022-10-31T04:56:08.589Z,12.41
2022-10-31T04:59:38.749Z,12.41
2022-10-31T05:03:04.294Z,12.41
2022-10-31T05:06:29.636Z,12.42
2022-10-31T05:09:55.621Z,12.41
2022-10-31T05:17:00.744Z,12.44
2022-10-31T05:20:44.495Z,12.44
2022-10-31T05:24:22.890Z,12.43
2022-10-31T05:27:51.120Z,12.42
2022-10-31T05:31:16.702Z,12.37
2022-10-31T05:34:42.087Z,12.31
2022-10-31T05:38:25.374Z,12.23
2022-10-31T05:41:51.251Z,12.16
2022-10-31T05:45:23.784Z,12.12
2022-10-31T05:48:55.443Z,12.06
2022-10-31T05:52:40.572Z,12.00
2022-10-31T05:56:31.875Z,11.98
2022-10-31T05:59:57.060Z,11.98
2022-10-31T06:03:23.646Z,11.95
2022-10-31T06:06:54.713Z,11.92
2022-10-31T06:10:22.149Z,11.92
2022-10-31T06:13:49.961Z,11.97
2022-10-31T06:17:20.775Z,11.97
2022-10-31T06:20:45.435Z,12.00
2022-10-31T06:24:10.903Z,12.04
2022-10-31T06:27:51.834Z,12.04
2022-10-31T06:31:18.125Z,12.08
2022-10-31T06:34:43.943Z,12.12
2022-10-31T06:38:09.495Z,12.12
2022-10-31T06:41:40.918Z,12.13
2022-10-31T06:45:06.096Z,12.18
2022-10-31T06:48:57.605Z,12.22
2022-10-31T06:52:40.382Z,12.23
2022-10-31T06:56:07.677Z,12.22
2022-10-31T06:59:36.438Z,12.23
2022-10-31T07:03:17.904Z,12.19
2022-10-31T07:06:42.769Z,12.14
2022-10-31T07:10:08.345Z,12.13
2022-10-31T07:13:51.534Z,12.10
2022-10-31T07:17:17.100Z,12.05
2022-10-31T07:20:42.742Z,11.99
2022-10-31T07:24:08.731Z,11.90
2022-10-31T07:27:43.741Z,11.84
2022-10-31T07:31:10.580Z,11.82
2022-10-31T07:34:36.179Z,11.81
2022-10-31T07:38:21.249Z,11.79
2022-10-31T07:41:47.585Z,11.79
2022-10-31T07:45:30.681Z,11.84
2022-10-31T07:49:17.447Z,11.87
2022-10-31T07:53:03.158Z,11.90
2022-10-31T07:56:58.036Z,11.93
2022-10-31T08:00:24.522Z,11.99
2022-10-31T08:03:51.758Z,12.01
2022-10-31T08:07:39.760Z,12.04
2022-10-31T08:11:10.060Z,12.09
2022-10-31T08:14:47.755Z,12.12
2022-10-31T08:18:16.323Z,12.17
2022-10-31T08:21:42.418Z,12.22
2022-10-31T08:25:09.311Z,12.28
2022-10-31T08:28:37.148Z,12.31
2022-10-31T08:32:04.711Z,12.33
2022-10-31T08:35:52.998Z,12.34
2022-10-31T08:39:39.726Z,12.42
2022-10-31T08:43:06.169Z,12.42
2022-10-31T08:46:33.123Z,12.43
2022-10-31T08:49:58.291Z,12.46
2022-10-31T08:53:24.767Z,12.53
2022-10-31T08:56:58.446Z,12.58
2022-10-31T09:00:34.614Z,12.58
2022-10-31T09:04:05.976Z,12.58
2022-10-31T09:07:30.866Z,12.59
2022-10-31T09:10:58.684Z,12.64
2022-10-31T09:14:49.688Z,12.70
2022-10-31T09:18:34.265Z,12.75
2022-10-31T09:21:59.532Z,12.81
2022-10-31T09:25:25.201Z,12.79
2022-10-31T09:29:03.127Z,12.80
2022-10-31T09:32:28.582Z,12.81
2022-10-31T09:35:54.864Z,12.81
2022-10-31T09:39:20.180Z,12.79
2022-10-31T09:42:55.372Z,12.73
2022-10-31T09:46:27.852Z,12.70
2022-10-31T09:50:00.095Z,12.68
2022-10-31T09:53:29.084Z,12.66
2022-10-31T09:56:54.595Z,12.65
2022-10-31T10:00:23.801Z,12.63
2022-10-31T10:03:53.561Z,12.62
2022-10-31T10:07:58.745Z,12.67
2022-10-31T10:11:56.381Z,12.74
2022-10-31T10:15:38.786Z,12.77
2022-10-31T10:19:12.894Z,12.85
2022-10-31T10:22:43.275Z,12.85
2022-10-31T10:26:15.644Z,12.91
2022-10-31T10:29:44.790Z,13.00
2022-10-31T10:33:13.697Z,13.08
2022-10-31T10:36:43.996Z,13.14
2022-10-31T10:42:47.193Z,13.20
2022-10-31T10:48:04.939Z,13.28
2022-10-31T10:55:39.861Z,13.32
2022-10-31T10:59:08.872Z,13.31
2022-10-31T11:02:36.873Z,13.30
2022-10-31T11:06:04.226Z,13.29
2022-10-31T11:09:33.763Z,13.30
2022-10-31T11:13:17.496Z,13.34
2022-10-31T11:16:44.727Z,13.39
2022-10-31T11:20:35.958Z,13.42
2022-10-31T11:24:14.921Z,13.46
2022-10-31T11:27:42.178Z,13.48
2022-10-31T11:31:15.393Z,13.52
2022-10-31T11:34:48.365Z,13.55
2022-10-31T11:38:26.813Z,13.56
2022-10-31T11:41:56.215Z,13.61
2022-10-31T11:45:35.102Z,13.68
2022-10-31T11:49:04.139Z,13.76
2022-10-31T11:52:35.439Z,13.78
2022-10-31T11:56:17.912Z,13.78
2022-10-31T11:59:56.436Z,13.83
2022-10-31T12:03:36.497Z,13.82
2022-10-31T12:07:03.983Z,13.83
2022-10-31T12:10:41.102Z,13.86
2022-10-31T12:14:19.779Z,13.89
2022-10-31T12:17:52.003Z,13.86
2022-10-31T12:21:32.019Z,13.84
2022-10-31T12:25:17.653Z,13.88
2022-10-31T12:29:07.348Z,13.93
2022-10-31T12:32:44.387Z,13.96
2022-10-31T12:36:32.418Z,14.00
2022-10-31T12:40:09.952Z,14.02
2022-10-31T12:43:45.738Z,14.05
2022-10-31T12:47:34.114Z,14.05
2022-10-31T12:51:11.619Z,14.09
2022-10-31T12:55:05.927Z,14.09
2022-10-31T12:58:33.937Z,14.07
2022-10-31T13:02:07.712Z,14.05
2022-10-31T13:05:40.576Z,14.03
2022-10-31T13:09:12.786Z,13.98
2022-10-31T13:12:42.026Z,13.91
2022-10-31T13:16:18.853Z,13.82
2022-10-31T13:19:50.145Z,13.79
2022-10-31T13:23:49.165Z,13.76
2022-10-31T13:27:17.048Z,13.69
2022-10-31T13:30:50.589Z,13.73
2022-10-31T13:34:26.211Z,13.78
2022-10-31T13:38:07.698Z,13.81
2022-10-31T13:41:46.341Z,13.85
2022-10-31T13:45:20.892Z,13.86
2022-10-31T13:48:48.980Z,13.86
2022-10-31T13:52:27.392Z,13.83
2022-10-31T13:56:14.621Z,13.84
2022-10-31T13:59:41.942Z,13.84
2022-10-31T14:03:36.378Z,13.85
2022-10-31T14:07:15.925Z,13.84
2022-10-31T14:10:53.719Z,13.86
2022-10-31T14:14:23.451Z,13.89
2022-10-31T14:17:54.413Z,13.92
2022-10-31T14:21:32.287Z,13.92
2022-10-31T14:25:02.821Z,13.91
2022-10-31T14:28:40.608Z,13.93
2022-10-31T14:32:23.990Z,13.96
2022-10-31T14:36:00.344Z,13.96
2022-10-31T14:39:33.937Z,13.97
2022-10-31T14:43:19.293Z,14.00
2022-10-31T14:46:59.119Z,14.03
2022-10-31T14:50:52.383Z,14.00
2022-10-31T14:54:26.039Z,13.99
2022-10-31T14:57:56.390Z,13.96
2022-10-31T15:01:30.060Z,13.90
2022-10-31T15:05:00.089Z,13.82
2022-10-31T15:08:37.630Z,13.78
2022-10-31T15:12:23.777Z,13.75
2022-10-31T15:15:52.614Z,13.72
2022-10-31T15:19:23.321Z,13.71
2022-10-31T15:22:50.975Z,13.71
2022-10-31T15:26:21.309Z,13.71
2022-10-31T15:29:58.091Z,13.69
2022-10-31T15:33:27.321Z,13.72
2022-10-31T15:36:58.040Z,13.75
2022-10-31T15:40:29.520Z,13.76
2022-10-31T15:43:57.049Z,13.77
2022-10-31T15:47:26.124Z,13.80
2022-10-31T15:50:56.815Z,13.82
2022-10-31T15:54:26.660Z,13.85
2022-10-31T15:57:58.211Z,13.86
2022-10-31T16:01:28.824Z,13.86
2022-10-31T16:04:58.190Z,13.88
2022-10-31T16:08:34.671Z,13.87
2022-10-31T16:12:01.959Z,13.90
2022-10-31T16:15:31.405Z,13.90
2022-10-31T16:19:01.301Z,13.92
2022-10-31T16:22:32.596Z,13.90
2022-10-31T16:26:00.624Z,13.84
2022-10-31T16:29:44.036Z,13.79
2022-10-31T16:33:30.578Z,13.80
2022-10-31T16:36:57.656Z,13.80
2022-10-31T16:40:26.277Z,13.80
2022-10-31T16:43:56.903Z,13.82
2022-10-31T16:47:28.516Z,13.81
2022-10-31T16:50:58.395Z,13.77
2022-10-31T16:54:50.275Z,13.78
2022-10-31T16:58:26.942Z,13.75
2022-10-31T17:02:01.468Z,13.70
2022-10-31T17:05:34.530Z,13.69
2022-10-31T17:09:01.690Z,13.69
2022-10-31T17:12:29.973Z,13.69
2022-10-31T17:15:59.088Z,13.69
2022-10-31T17:19:28.973Z,13.70
2022-10-31T17:22:57.532Z,13.71
2022-10-31T17:26:24.947Z,13.73
2022-10-31T17:29:52.661Z,13.76
2022-10-31T17:33:23.293Z,13.75
2022-10-31T17:36:54.200Z,13.73
2022-10-31T17:40:23.318Z,13.75
2022-10-31T17:43:50.777Z,13.72
2022-10-31T17:47:21.085Z,13.72
2022-10-31T17:50:51.275Z,13.74
2022-10-31T17:54:19.137Z,13.73
2022-10-31T17:57:47.232Z,13.73
2022-10-31T18:01:17.311Z,13.72
2022-10-31T18:04:44.356Z,13.71
2022-10-31T18:08:12.085Z,13.71
2022-10-31T18:11:40.088Z,13.72
2022-10-31T18:15:08.760Z,13.72
2022-10-31T18:18:35.699Z,13.71
2022-10-31T18:22:02.523Z,13.75
2022-10-31T18:25:29.658Z,13.77
2022-10-31T18:28:58.674Z,13.79
2022-10-31T18:32:26.731Z,13.83
2022-10-31T18:35:54.249Z,13.84
2022-10-31T18:39:21.284Z,13.84
2022-10-31T18:42:48.649Z,13.81
2022-10-31T18:46:18.127Z,13.79
2022-10-31T18:49:45.211Z,13.78
2022-10-31T18:53:13.692Z,13.73
2022-10-31T18:56:40.945Z,13.68
2022-10-31T19:00:10.991Z,13.61
2022-10-31T19:03:38.059Z,13.59
2022-10-31T19:07:05.826Z,13.58
2022-10-31T19:10:32.931Z,13.60
2022-10-31T19:14:00.529Z,13.60
2022-10-31T19:17:29.947Z,13.61
2022-10-31T19:20:57.337Z,13.61
2022-10-31T19:24:27.520Z,13.64
2022-10-31T19:27:55.418Z,13.66
2022-10-31T19:31:22.670Z,13.66
2022-10-31T19:34:50.142Z,13.71
2022-10-31T19:38:17.899Z,13.75
2022-10-31T19:41:45.875Z,13.80
2022-10-31T19:45:14.039Z,13.84
2022-10-31T19:48:43.968Z,13.89
2022-10-31T19:52:12.154Z,13.92
2022-10-31T19:55:47.209Z,13.95
2022-10-31T19:59:16.128Z,13.92
2022-10-31T20:02:45.499Z,13.92
2022-10-31T20:06:24.531Z,13.91
2022-10-31T20:09:53.343Z,13.96
2022-10-31T20:13:21.731Z,14.00
2022-10-31T20:16:53.410Z,14.02
2022-10-31T20:20:23.240Z,14.03
2022-10-31T20:23:57.260Z,13.97
2022-10-31T20:27:29.192Z,13.93
2022-10-31T20:31:00.139Z,13.90
2022-10-31T20:34:27.186Z,13.88
2022-10-31T20:37:56.191Z,13.86
2022-10-31T20:41:25.638Z,13.85
2022-10-31T20:44:53.878Z,13.84
2022-10-31T20:48:25.178Z,13.86
2022-10-31T20:52:00.941Z,13.87
2022-10-31T20:55:28.858Z,13.88
2022-10-31T20:59:00.282Z,13.90
2022-10-31T21:02:31.567Z,13.92
2022-10-31T21:06:03.426Z,13.94
2022-10-31T21:09:31.340Z,13.97
2022-10-31T21:12:59.131Z,13.98
2022-10-31T21:16:28.639Z,13.97
2022-10-31T21:19:56.019Z,13.96
2022-10-31T21:23:22.940Z,13.96
2022-10-31T21:26:54.729Z,13.97
2022-10-31T21:30:22.161Z,13.99
2022-10-31T21:33:50.030Z,14.02
2022-10-31T21:37:20.572Z,14.05
2022-10-31T21:40:48.357Z,14.02
2022-10-31T21:44:18.176Z,14.00
2022-10-31T21:47:47.291Z,13.96
2022-10-31T21:51:18.271Z,13.91
2022-10-31T21:54:47.365Z,13.89
2022-10-31T21:58:19.598Z,13.84
2022-10-31T22:01:51.469Z,13.82
2022-10-31T22:05:28.714Z,13.83
2022-10-31T22:09:05.230Z,13.87
2022-10-31T22:12:33.680Z,13.89
2022-10-31T22:16:06.096Z,13.92
2022-10-31T22:19:33.371Z,13.93
2022-10-31T22:23:00.089Z,13.95
2022-10-31T22:26:28.592Z,13.98
2022-10-31T22:29:56.696Z,13.99
2022-10-31T22:33:25.825Z,14.03
2022-10-31T22:36:57.600Z,14.06
2022-10-31T22:40:24.887Z,14.09
2022-10-31T22:43:52.667Z,14.12
2022-10-31T22:47:19.987Z,14.13
2022-10-31T22:50:47.757Z,14.12
2022-10-31T22:54:17.019Z,14.10
2022-10-31T22:57:44.177Z,14.09
2022-10-31T23:01:15.245Z,14.06
2022-10-31T23:04:42.382Z,13.99
2022-10-31T23:08:10.251Z,13.96
2022-10-31T23:11:41.909Z,13.94
2022-10-31T23:15:10.768Z,13.92
2022-10-31T23:18:49.524Z,13.92
2022-10-31T23:22:17.022Z,13.94
2022-10-31T23:26:04.360Z,13.95
2022-10-31T23:29:40.918Z,13.97
2022-10-31T23:33:13.493Z,14.00
2022-10-31T23:36:43.569Z,13.99
2022-10-31T23:40:14.287Z,14.01
2022-10-31T23:43:44.214Z,14.07
2022-10-31T23:47:19.926Z,14.09
2022-10-31T23:50:51.318Z,14.08
2022-10-31T23:54:19.413Z,14.10
2022-10-31T23:57:48.599Z,14.13
